Stoneham, Massachusetts
Current Conditions -  °F | °C
As of 5:56 PM on Tuesday 27 Jan 2015 (Local Time) from KBED Reporting Station
Light Snow Light Snow  
Wind Chill: -2°   Ceiling: 1800
Heat Index: 15°   Visibility: 2mi
Dew Point: 10°   Wind: 18mph
Humidity: 80%   Direction: 330°NNW
Pressure: 29.57"   Gusts: 28mph
Location:  42.48°N, 71.1°W
Report Text: KBED 272256Z AUTO 33016G24KT 2SM -SN OVC018 M09/M12 A2957 RMK AO2 SLP030 P0000 T10941122 TSNO $
Loading
Personal Weather Stations






























Interactive Weather Map New forecast layout! Learn more

10-Day Weather Forecast

Advertisements
Track Severe Weather on mobile